createdAt,value
2019-03-27T00:00:27.788Z,43.10
2019-03-27T00:02:57.337Z,44.50
2019-03-27T00:05:25.845Z,47.00
2019-03-27T00:07:54.409Z,47.00
2019-03-27T00:10:22.909Z,40.60
2019-03-27T00:12:51.417Z,50.00
2019-03-27T00:15:20.455Z,46.50
2019-03-27T00:17:49.014Z,43.70
2019-03-27T00:20:17.586Z,46.30
2019-03-27T00:22:46.130Z,47.90
2019-03-27T00:25:14.551Z,45.70
2019-03-27T00:30:11.601Z,42.10
2019-03-27T00:32:40.188Z,43.40
2019-03-27T00:35:08.755Z,33.90
2019-03-27T00:37:37.298Z,31.70
2019-03-27T00:40:06.289Z,30.10
2019-03-27T00:42:34.769Z,29.30
2019-03-27T00:45:04.303Z,28.10
2019-03-27T00:47:32.738Z,27.70
2019-03-27T00:50:01.230Z,28.00
2019-03-27T00:52:29.710Z,26.90
2019-03-27T00:54:58.127Z,27.20
2019-03-27T00:57:26.622Z,26.50
2019-03-27T00:59:55.168Z,25.80
2019-03-27T01:02:23.651Z,26.00
2019-03-27T01:04:53.142Z,24.20
2019-03-27T01:07:21.763Z,26.90
2019-03-27T01:09:50.182Z,27.20
2019-03-27T01:12:18.755Z,27.20
2019-03-27T01:14:48.857Z,27.00
2019-03-27T01:19:45.533Z,28.10
2019-03-27T01:22:14.153Z,27.50
2019-03-27T01:24:42.570Z,27.00
2019-03-27T01:27:11.074Z,26.40
2019-03-27T01:29:39.692Z,26.30
2019-03-27T01:32:08.194Z,25.90
2019-03-27T01:34:36.750Z,24.40
2019-03-27T01:37:05.369Z,25.90
2019-03-27T01:39:33.789Z,27.30
2019-03-27T01:42:02.350Z,27.70
2019-03-27T01:44:30.886Z,27.20
2019-03-27T01:46:59.513Z,27.10
2019-03-27T01:49:28.087Z,26.40
2019-03-27T01:51:56.571Z,24.40
2019-03-27T01:54:24.991Z,24.90
2019-03-27T01:56:53.405Z,24.90
2019-03-27T01:59:21.949Z,25.30
2019-03-27T02:01:50.508Z,24.10
2019-03-27T02:04:19.136Z,24.00
2019-03-27T02:06:48.553Z,23.80
2019-03-27T02:09:17.049Z,23.70
2019-03-27T02:11:45.539Z,23.70
2019-03-27T02:14:14.159Z,23.80
2019-03-27T02:16:42.654Z,23.90
2019-03-27T02:19:11.140Z,23.80
2019-03-27T02:21:39.693Z,24.00
2019-03-27T02:24:08.179Z,24.10
2019-03-27T02:26:36.745Z,25.30
2019-03-27T02:29:05.291Z,24.20
2019-03-27T02:31:33.948Z,24.20
2019-03-27T02:36:30.818Z,27.60
2019-03-27T02:38:59.313Z,27.90
2019-03-27T02:41:27.804Z,27.30
2019-03-27T02:43:56.352Z,25.10
2019-03-27T02:46:25.643Z,25.10
2019-03-27T02:48:54.748Z,25.00
2019-03-27T02:51:23.306Z,25.90
2019-03-27T02:53:51.863Z,24.80
2019-03-27T02:56:20.383Z,24.60
2019-03-27T02:58:48.927Z,24.90
2019-03-27T03:01:17.415Z,24.60
2019-03-27T03:03:45.971Z,24.90
2019-03-27T03:06:14.515Z,24.20
2019-03-27T03:08:43.067Z,24.00
2019-03-27T03:11:11.665Z,24.10
2019-03-27T03:13:40.197Z,27.20
2019-03-27T03:16:08.819Z,26.60
2019-03-27T03:18:37.242Z,24.60
2019-03-27T03:21:05.859Z,24.60
2019-03-27T03:23:34.354Z,26.70
2019-03-27T03:26:02.876Z,28.10
2019-03-27T03:28:31.495Z,27.00
2019-03-27T03:31:00.013Z,28.30
2019-03-27T03:33:28.494Z,29.00
2019-03-27T03:35:57.101Z,30.30
2019-03-27T03:38:25.691Z,26.10
2019-03-27T03:40:54.088Z,29.60
2019-03-27T03:43:22.566Z,26.10
2019-03-27T03:45:51.155Z,25.90
2019-03-27T03:48:19.663Z,26.10
2019-03-27T03:50:48.214Z,25.90
2019-03-27T03:53:16.799Z,25.90
2019-03-27T03:55:45.361Z,25.90
2019-03-27T03:58:14.581Z,26.10
2019-03-27T04:00:43.152Z,26.20
2019-03-27T04:03:11.704Z,26.30
2019-03-27T04:05:40.250Z,26.40
2019-03-27T04:08:08.674Z,26.80
2019-03-27T04:10:37.304Z,26.80
2019-03-27T04:13:05.929Z,27.20
2019-03-27T04:15:34.485Z,27.20
2019-03-27T04:18:02.976Z,27.30
2019-03-27T04:20:31.529Z,27.30
2019-03-27T04:23:00.090Z,27.50
2019-03-27T04:25:28.646Z,27.60
2019-03-27T04:27:57.204Z,27.50
2019-03-27T04:30:25.711Z,27.20
2019-03-27T04:32:54.200Z,27.00
2019-03-27T04:35:22.692Z,26.80
2019-03-27T04:37:51.172Z,26.60
2019-03-27T04:40:19.669Z,26.50
2019-03-27T04:42:48.216Z,26.50
2019-03-27T04:45:17.116Z,26.60
2019-03-27T04:47:45.773Z,26.60
2019-03-27T04:50:14.329Z,26.60
2019-03-27T04:52:42.889Z,26.70
2019-03-27T04:55:11.786Z,26.90
2019-03-27T04:57:40.402Z,26.80
2019-03-27T05:00:09.437Z,26.80
2019-03-27T05:02:38.004Z,26.80
2019-03-27T05:05:07.891Z,27.10
2019-03-27T05:07:36.454Z,26.40
2019-03-27T05:10:06.256Z,26.50
2019-03-27T05:12:38.211Z,26.60
2019-03-27T05:15:06.469Z,26.70
2019-03-27T05:17:45.127Z,27.00
2019-03-27T05:20:07.185Z,27.20
2019-03-27T05:22:35.699Z,27.30
2019-03-27T05:25:05.365Z,27.70
2019-03-27T05:27:36.319Z,27.80
2019-03-27T05:30:05.816Z,27.80
2019-03-27T05:32:34.231Z,27.80
2019-03-27T05:35:02.870Z,27.70
2019-03-27T05:37:31.519Z,27.70
2019-03-27T05:40:00.014Z,27.80
2019-03-27T05:42:29.051Z,27.80
2019-03-27T05:44:57.698Z,27.30
2019-03-27T05:47:26.207Z,26.70
2019-03-27T05:49:54.751Z,26.20
2019-03-27T05:52:23.167Z,25.90
2019-03-27T05:54:51.782Z,26.20
2019-03-27T05:57:20.403Z,25.40
2019-03-27T05:59:48.893Z,25.10
2019-03-27T06:02:17.464Z,25.10
2019-03-27T06:04:46.012Z,24.50
2019-03-27T06:07:14.560Z,24.80
2019-03-27T06:09:43.056Z,24.70
2019-03-27T06:12:12.922Z,24.60
2019-03-27T06:14:41.442Z,24.70
2019-03-27T06:17:10.027Z,24.60
2019-03-27T06:19:38.508Z,24.50
2019-03-27T06:22:06.999Z,24.50
2019-03-27T06:24:38.444Z,24.70
2019-03-27T06:27:07.062Z,24.80
2019-03-27T06:29:35.562Z,24.90
2019-03-27T06:32:04.184Z,24.70
2019-03-27T06:34:32.814Z,24.60
2019-03-27T06:37:01.382Z,24.50
2019-03-27T06:39:29.871Z,24.20
2019-03-27T06:41:58.503Z,24.10
2019-03-27T06:44:27.069Z,23.90
2019-03-27T06:46:55.625Z,23.90
2019-03-27T06:49:24.230Z,24.40
2019-03-27T06:51:52.734Z,25.00
2019-03-27T06:54:21.222Z,25.00
2019-03-27T06:56:49.872Z,25.20
2019-03-27T06:59:18.503Z,24.50
2019-03-27T07:01:47.136Z,23.40
2019-03-27T07:04:15.768Z,23.00
2019-03-27T07:06:44.312Z,22.70
2019-03-27T07:09:12.698Z,22.60
2019-03-27T07:11:41.462Z,22.80
2019-03-27T07:14:10.967Z,22.60
2019-03-27T07:16:39.458Z,22.70
2019-03-27T07:19:08.001Z,22.70
2019-03-27T07:21:36.432Z,23.40
2019-03-27T07:24:04.912Z,23.60
2019-03-27T07:26:35.087Z,23.20
2019-03-27T07:29:03.678Z,22.70
2019-03-27T07:31:32.143Z,22.30
2019-03-27T07:34:00.769Z,23.30
2019-03-27T07:36:29.327Z,22.40
2019-03-27T07:39:10.383Z,21.70
2019-03-27T07:41:28.170Z,21.70
2019-03-27T07:43:56.804Z,22.90
2019-03-27T07:46:25.282Z,22.50
2019-03-27T07:48:54.533Z,22.20
2019-03-27T07:51:23.283Z,21.70
2019-03-27T07:53:51.780Z,22.00
2019-03-27T07:56:20.425Z,22.60
2019-03-27T07:58:48.916Z,23.20
2019-03-27T08:01:17.490Z,24.20
2019-03-27T08:03:46.226Z,23.70
2019-03-27T08:06:14.700Z,24.50
2019-03-27T08:08:43.199Z,24.50
2019-03-27T08:11:11.887Z,23.00
2019-03-27T08:13:40.447Z,23.30
2019-03-27T08:16:09.972Z,22.20
2019-03-27T08:18:40.587Z,22.20
2019-03-27T08:21:09.120Z,23.80
2019-03-27T08:23:37.687Z,24.60
2019-03-27T08:26:06.258Z,22.20
2019-03-27T08:28:34.838Z,22.40
2019-03-27T08:31:03.335Z,22.30
2019-03-27T08:33:31.953Z,24.00
2019-03-27T08:36:00.510Z,22.40
2019-03-27T08:38:29.012Z,22.80
2019-03-27T08:40:57.633Z,22.30
2019-03-27T08:43:26.211Z,24.80
2019-03-27T08:45:54.826Z,24.00
2019-03-27T08:48:23.393Z,22.20
2019-03-27T08:50:51.957Z,21.60
2019-03-27T08:53:20.465Z,21.30
2019-03-27T08:55:49.411Z,20.90
2019-03-27T08:58:18.175Z,20.80
2019-03-27T09:00:49.169Z,20.90
2019-03-27T09:03:17.720Z,23.70
2019-03-27T09:05:46.426Z,20.60
2019-03-27T09:08:15.236Z,21.10
2019-03-27T09:10:43.904Z,20.80
2019-03-27T09:15:41.133Z,20.60
2019-03-27T09:18:10.799Z,21.40
2019-03-27T09:20:39.470Z,21.30
2019-03-27T09:23:08.208Z,20.30
2019-03-27T09:25:36.998Z,21.00
2019-03-27T09:28:05.830Z,21.50
2019-03-27T09:30:34.524Z,22.20
2019-03-27T09:33:03.203Z,23.60
2019-03-27T09:35:31.872Z,23.80
2019-03-27T09:38:00.563Z,22.50
2019-03-27T09:40:29.355Z,21.90
2019-03-27T09:42:58.105Z,21.40
2019-03-27T09:45:26.979Z,24.40
2019-03-27T09:47:55.863Z,26.10
2019-03-27T09:52:55.926Z,22.70
2019-03-27T09:55:24.612Z,22.10
2019-03-27T09:57:53.258Z,23.20
2019-03-27T10:00:31.137Z,21.60
2019-03-27T10:02:59.715Z,21.20
2019-03-27T10:05:28.424Z,21.10
2019-03-27T10:07:57.081Z,20.70
2019-03-27T10:10:25.880Z,24.80
2019-03-27T10:12:54.386Z,21.40
2019-03-27T10:15:23.143Z,26.30
2019-03-27T10:17:51.860Z,22.40
2019-03-27T10:20:21.690Z,22.10
2019-03-27T10:22:50.357Z,22.00
2019-03-27T10:25:19.064Z,21.20
2019-03-27T10:27:47.774Z,20.50
2019-03-27T10:30:16.444Z,20.30
2019-03-27T10:32:45.168Z,20.70
2019-03-27T10:35:13.781Z,20.40
2019-03-27T10:37:42.496Z,21.70
2019-03-27T10:40:11.201Z,21.80
2019-03-27T10:42:39.919Z,21.20
2019-03-27T10:45:08.809Z,20.90
2019-03-27T10:47:37.468Z,20.50
2019-03-27T10:50:16.963Z,19.90
2019-03-27T10:52:37.290Z,19.50
2019-03-27T10:55:06.067Z,18.90
2019-03-27T10:57:34.751Z,19.20
2019-03-27T11:00:05.513Z,20.00
2019-03-27T11:02:53.503Z,20.50
2019-03-27T11:05:22.211Z,22.10
2019-03-27T11:07:50.801Z,21.40
2019-03-27T11:10:19.470Z,22.60
2019-03-27T11:12:48.114Z,22.60
2019-03-27T11:15:16.611Z,23.10
2019-03-27T11:17:45.200Z,22.50
2019-03-27T11:20:13.883Z,21.50
2019-03-27T11:22:43.296Z,21.40
2019-03-27T11:25:11.940Z,21.20
2019-03-27T11:27:40.669Z,20.60
2019-03-27T11:30:09.293Z,20.10
2019-03-27T11:32:40.583Z,20.50
2019-03-27T11:35:09.290Z,21.80
2019-03-27T11:37:37.891Z,21.50
2019-03-27T11:40:06.388Z,22.10
2019-03-27T11:42:34.952Z,22.30
2019-03-27T11:45:04.912Z,22.60
2019-03-27T11:47:33.585Z,22.80
2019-03-27T11:50:02.301Z,21.90
2019-03-27T11:52:30.976Z,21.20
2019-03-27T11:54:59.617Z,21.50
2019-03-27T11:57:28.274Z,21.50
2019-03-27T11:59:56.833Z,22.40
2019-03-27T12:02:54.345Z,24.80
2019-03-27T12:05:22.979Z,22.40
2019-03-27T12:07:51.516Z,21.40
2019-03-27T12:10:20.044Z,21.30
2019-03-27T12:12:48.786Z,21.50
2019-03-27T12:15:20.510Z,21.30
2019-03-27T12:17:49.130Z,22.70
2019-03-27T12:20:17.769Z,23.70
2019-03-27T12:22:57.315Z,23.60
2019-03-27T12:25:16.773Z,23.50
2019-03-27T12:27:45.294Z,24.00
2019-03-27T12:30:14.353Z,24.00
2019-03-27T12:32:42.916Z,24.00
2019-03-27T12:35:11.495Z,23.90
2019-03-27T12:37:40.062Z,24.50
2019-03-27T12:40:11.944Z,26.80
2019-03-27T12:42:39.059Z,27.50
2019-03-27T12:45:08.329Z,28.50
2019-03-27T12:47:37.117Z,28.50
2019-03-27T12:50:07.289Z,28.70
2019-03-27T12:52:35.971Z,31.10
2019-03-27T12:55:05.425Z,31.50
2019-03-27T12:57:34.052Z,31.90
2019-03-27T13:00:02.718Z,31.90
2019-03-27T13:02:31.386Z,31.40
2019-03-27T13:05:00.000Z,29.90
2019-03-27T13:07:28.531Z,28.70
2019-03-27T13:09:57.272Z,28.20
2019-03-27T13:12:25.888Z,28.60
2019-03-27T13:14:54.563Z,29.00
2019-03-27T13:17:23.203Z,28.60
2019-03-27T13:19:51.696Z,28.80
2019-03-27T13:22:20.292Z,27.90
2019-03-27T13:24:51.130Z,27.30
2019-03-27T13:27:19.686Z,26.90
2019-03-27T13:29:48.249Z,27.20
2019-03-27T13:32:16.829Z,27.70
2019-03-27T13:34:45.510Z,28.60
2019-03-27T13:37:14.013Z,29.60
2019-03-27T13:39:42.590Z,29.80
2019-03-27T13:42:11.153Z,30.20
2019-03-27T13:44:39.790Z,30.80
2019-03-27T13:47:08.437Z,30.50
2019-03-27T13:49:37.282Z,29.70
2019-03-27T13:52:06.163Z,29.30
2019-03-27T13:54:34.786Z,28.00
2019-03-27T13:57:03.325Z,26.80
2019-03-27T13:59:31.904Z,26.80
2019-03-27T14:02:00.618Z,27.80
2019-03-27T14:04:29.687Z,27.90
2019-03-27T14:06:58.386Z,27.30
2019-03-27T14:09:26.916Z,26.70
2019-03-27T14:11:55.537Z,26.80
2019-03-27T14:14:24.257Z,27.10
2019-03-27T14:16:52.937Z,26.80
2019-03-27T14:19:21.822Z,26.90
2019-03-27T14:21:54.758Z,26.80
2019-03-27T14:24:20.701Z,27.40
2019-03-27T14:26:49.295Z,27.60
2019-03-27T14:29:17.770Z,26.60
2019-03-27T14:31:46.372Z,26.10
2019-03-27T14:34:14.928Z,25.80
2019-03-27T14:36:43.537Z,24.70
2019-03-27T14:39:12.101Z,24.70
2019-03-27T14:41:40.667Z,24.10
2019-03-27T14:44:09.236Z,24.40
2019-03-27T14:46:37.863Z,24.50
2019-03-27T14:49:06.408Z,24.20
2019-03-27T14:51:34.959Z,24.20
2019-03-27T14:54:03.657Z,24.30
2019-03-27T14:56:32.171Z,24.40
2019-03-27T14:59:02.378Z,24.90
2019-03-27T15:01:31.127Z,24.80
2019-03-27T15:03:59.650Z,24.30
2019-03-27T15:06:28.133Z,24.50
2019-03-27T15:08:56.691Z,24.20
2019-03-27T15:11:25.180Z,24.50
2019-03-27T15:13:54.036Z,25.00
2019-03-27T15:16:22.579Z,24.40
2019-03-27T15:18:52.668Z,24.70
2019-03-27T15:21:21.347Z,25.10
2019-03-27T15:23:49.978Z,25.50
2019-03-27T15:26:19.424Z,25.40
2019-03-27T15:28:50.644Z,25.20
2019-03-27T15:31:20.771Z,25.10
2019-03-27T15:33:48.541Z,25.30
2019-03-27T15:36:17.106Z,25.30
2019-03-27T15:38:45.749Z,25.60
2019-03-27T15:41:14.315Z,25.80
2019-03-27T15:43:42.780Z,24.90
2019-03-27T15:46:11.990Z,24.80
2019-03-27T15:48:40.626Z,25.70
2019-03-27T15:51:09.360Z,25.20
2019-03-27T15:53:38.007Z,25.00
2019-03-27T15:56:06.580Z,24.90
2019-03-27T15:58:35.683Z,25.10
2019-03-27T16:01:04.891Z,25.70
2019-03-27T16:03:33.450Z,26.10
2019-03-27T16:06:02.007Z,25.80
2019-03-27T16:08:30.798Z,25.60
2019-03-27T16:10:59.372Z,26.00
2019-03-27T16:13:27.995Z,25.70
2019-03-27T16:15:56.633Z,25.60
2019-03-27T16:18:28.420Z,25.60
2019-03-27T16:20:56.918Z,24.90
2019-03-27T16:23:25.530Z,24.70
2019-03-27T16:25:54.097Z,26.00
2019-03-27T16:28:22.593Z,25.70
2019-03-27T16:30:52.426Z,25.40
2019-03-27T16:35:49.399Z,27.00
2019-03-27T16:38:18.147Z,27.50
2019-03-27T16:40:47.263Z,25.80
2019-03-27T16:43:15.878Z,29.60
2019-03-27T16:45:44.653Z,26.50
2019-03-27T16:48:13.414Z,27.00
2019-03-27T16:50:42.097Z,26.50
2019-03-27T16:53:11.478Z,27.40
2019-03-27T16:55:40.304Z,28.10
2019-03-27T16:58:09.184Z,28.00
2019-03-27T17:00:37.945Z,27.20
2019-03-27T17:03:06.672Z,26.80
2019-03-27T17:05:35.222Z,27.30
2019-03-27T17:08:03.846Z,26.80
2019-03-27T17:10:33.984Z,26.80
2019-03-27T17:13:02.546Z,27.00
2019-03-27T17:15:31.090Z,26.70
2019-03-27T17:17:59.702Z,28.70
2019-03-27T17:20:28.359Z,26.90
2019-03-27T17:22:56.969Z,27.20
2019-03-27T17:25:25.605Z,26.60
2019-03-27T17:27:55.899Z,28.00
2019-03-27T17:30:24.831Z,29.80
2019-03-27T17:32:53.557Z,31.40
2019-03-27T17:35:22.147Z,31.70
2019-03-27T17:37:50.859Z,32.30
2019-03-27T17:40:21.067Z,32.50
2019-03-27T17:42:49.657Z,33.40
2019-03-27T17:45:18.443Z,32.90
2019-03-27T17:47:47.158Z,32.70
2019-03-27T17:50:16.123Z,32.80
2019-03-27T17:55:13.220Z,34.20
2019-03-27T17:57:41.715Z,32.90
2019-03-27T18:00:12.463Z,34.40
2019-03-27T18:02:41.266Z,34.90
2019-03-27T18:05:10.479Z,35.40
2019-03-27T18:07:39.304Z,33.80
2019-03-27T18:10:08.261Z,39.50
2019-03-27T18:12:36.887Z,38.40
2019-03-27T18:17:34.959Z,35.50
2019-03-27T18:20:04.076Z,34.60
2019-03-27T18:22:33.572Z,34.30
2019-03-27T18:25:02.590Z,34.90
2019-03-27T18:27:31.197Z,34.80
2019-03-27T18:30:00.054Z,35.40
2019-03-27T18:32:28.665Z,35.10
2019-03-27T18:37:25.666Z,37.00
2019-03-27T18:39:54.343Z,37.00
2019-03-27T18:42:24.435Z,37.20
2019-03-27T18:44:53.257Z,36.90
2019-03-27T18:49:49.971Z,36.30
2019-03-27T18:52:18.736Z,35.40
2019-03-27T18:54:47.353Z,36.20
2019-03-27T18:57:16.000Z,36.50
2019-03-27T18:59:44.775Z,36.60
2019-03-27T19:02:13.411Z,36.80
2019-03-27T19:04:41.971Z,36.00
2019-03-27T19:07:11.147Z,36.00
2019-03-27T19:12:08.014Z,38.00
2019-03-27T19:14:36.667Z,40.70
2019-03-27T19:17:05.587Z,41.90
2019-03-27T19:19:34.312Z,38.70
2019-03-27T19:22:03.043Z,37.80
2019-03-27T19:24:31.712Z,37.20
2019-03-27T19:27:00.347Z,37.50
2019-03-27T19:29:29.225Z,35.70
2019-03-27T19:31:58.795Z,36.30
2019-03-27T19:34:33.317Z,36.10
2019-03-27T19:37:01.871Z,36.10
2019-03-27T19:39:30.402Z,34.40
2019-03-27T19:41:59.077Z,36.30
2019-03-27T19:44:27.716Z,37.90
2019-03-27T19:46:56.281Z,38.50
2019-03-27T19:49:24.938Z,38.60
2019-03-27T19:51:53.695Z,39.20
2019-03-27T19:54:27.428Z,39.80
2019-03-27T19:56:53.259Z,37.00
2019-03-27T19:59:22.123Z,38.40
2019-03-27T20:01:50.641Z,37.70
2019-03-27T20:04:21.165Z,36.60
2019-03-27T20:06:50.026Z,36.50
2019-03-27T20:09:18.703Z,37.20
2019-03-27T20:11:48.353Z,37.40
2019-03-27T20:14:17.249Z,38.20
2019-03-27T20:16:45.937Z,40.90
2019-03-27T20:19:14.580Z,40.20
2019-03-27T20:21:43.732Z,40.90
2019-03-27T20:24:12.454Z,43.30
2019-03-27T20:26:42.365Z,42.50
2019-03-27T20:29:12.516Z,43.80
2019-03-27T20:31:42.485Z,43.90
2019-03-27T20:34:11.072Z,44.30
2019-03-27T20:36:40.056Z,43.90
2019-03-27T20:39:09.117Z,43.90
2019-03-27T20:41:37.662Z,43.90
2019-03-27T20:44:06.335Z,45.60
2019-03-27T20:49:03.332Z,43.90
2019-03-27T20:51:32.009Z,42.60
2019-03-27T20:54:01.582Z,40.80
2019-03-27T20:56:30.462Z,41.30
2019-03-27T20:59:01.332Z,39.10
2019-03-27T21:01:29.601Z,36.50
2019-03-27T21:03:59.490Z,37.00
2019-03-27T21:06:28.073Z,38.00
2019-03-27T21:08:58.682Z,36.80
2019-03-27T21:11:27.331Z,35.80
2019-03-27T21:13:56.024Z,35.20
2019-03-27T21:16:24.650Z,35.60
2019-03-27T21:18:53.507Z,38.70
2019-03-27T21:21:22.535Z,40.30
2019-03-27T21:23:51.301Z,41.50
2019-03-27T21:26:19.757Z,42.20
2019-03-27T21:28:48.462Z,41.80
2019-03-27T21:31:17.095Z,41.30
2019-03-27T21:33:46.820Z,41.10
2019-03-27T21:36:15.505Z,39.00
2019-03-27T21:38:44.010Z,38.50
2019-03-27T21:41:12.502Z,38.20
2019-03-27T21:43:41.227Z,35.20
2019-03-27T21:46:11.351Z,35.00
2019-03-27T21:51:09.921Z,35.00
2019-03-27T21:53:38.475Z,36.00
2019-03-27T21:56:07.057Z,35.80
2019-03-27T21:58:35.739Z,35.60
2019-03-27T22:01:04.330Z,36.50
2019-03-27T22:03:32.886Z,34.30
2019-03-27T22:06:01.648Z,33.10
2019-03-27T22:08:30.146Z,32.30
2019-03-27T22:11:00.291Z,32.40
2019-03-27T22:13:28.864Z,32.80
2019-03-27T22:15:57.420Z,32.00
2019-03-27T22:18:25.834Z,31.80
2019-03-27T22:20:54.390Z,31.80
2019-03-27T22:23:23.221Z,32.70
2019-03-27T22:25:51.646Z,33.60
2019-03-27T22:28:20.339Z,33.70
2019-03-27T22:30:49.094Z,33.50
2019-03-27T22:33:17.672Z,32.40
2019-03-27T22:35:47.285Z,31.10
2019-03-27T22:43:12.458Z,66.90
2019-03-27T22:45:40.961Z,68.00
2019-03-27T22:50:38.014Z,65.70
2019-03-27T22:53:06.506Z,69.70
2019-03-27T22:58:03.362Z,56.20
2019-03-27T23:00:35.911Z,56.70
2019-03-27T23:03:17.499Z,59.50
2019-03-27T23:05:35.038Z,73.40
2019-03-27T23:10:31.943Z,72.10
2019-03-27T23:15:28.734Z,72.90
2019-03-27T23:20:25.475Z,63.00
2019-03-27T23:22:53.968Z,73.80
2019-03-27T23:30:18.966Z,50.40
2019-03-27T23:32:47.456Z,72.30
2019-03-27T23:35:15.999Z,71.00
2019-03-27T23:48:55.433Z,72.50
2019-03-27T23:56:20.406Z,59.30
2019-03-27T23:58:51.294Z,69.00
